sensor_id;sensor_type;location;lat;lon;timestamp;P1;durP1;ratioP1;P2;durP2;ratioP2
20997;SDS011;10657;51.276;6.390;2022-09-27T00:00:26;8.98;;;2.92;;
20997;SDS011;10657;51.276;6.390;2022-09-27T00:02:52;8.48;;;2.60;;
20997;SDS011;10657;51.276;6.390;2022-09-27T00:05:19;7.85;;;2.92;;
20997;SDS011;10657;51.276;6.390;2022-09-27T00:07:46;7.95;;;2.45;;
20997;SDS011;10657;51.276;6.390;2022-09-27T00:10:13;10.68;;;2.47;;
20997;SDS011;10657;51.276;6.390;2022-09-27T00:12:41;6.78;;;2.08;;
20997;SDS011;10657;51.276;6.390;2022-09-27T00:15:08;8.20;;;2.00;;
20997;SDS011;10657;51.276;6.390;2022-09-27T00:17:36;7.93;;;1.95;;
20997;SDS011;10657;51.276;6.390;2022-09-27T00:20:04;7.55;;;2.30;;
20997;SDS011;10657;51.276;6.390;2022-09-27T00:22:32;5.93;;;1.50;;
20997;SDS011;10657;51.276;6.390;2022-09-27T00:24:59;7.10;;;1.70;;
20997;SDS011;10657;51.276;6.390;2022-09-27T00:27:26;5.88;;;1.80;;
20997;SDS011;10657;51.276;6.390;2022-09-27T00:29:53;6.80;;;1.38;;
20997;SDS011;10657;51.276;6.390;2022-09-27T00:32:20;5.07;;;1.42;;
20997;SDS011;10657;51.276;6.390;2022-09-27T00:34:46;8.23;;;1.60;;
20997;SDS011;10657;51.276;6.390;2022-09-27T00:37:13;7.45;;;1.77;;
20997;SDS011;10657;51.276;6.390;2022-09-27T00:39:40;7.40;;;1.83;;
20997;SDS011;10657;51.276;6.390;2022-09-27T00:42:10;5.65;;;1.60;;
20997;SDS011;10657;51.276;6.390;2022-09-27T00:50:13;5.43;;;2.10;;
20997;SDS011;10657;51.276;6.390;2022-09-27T00:53:01;8.73;;;2.25;;
20997;SDS011;10657;51.276;6.390;2022-09-27T00:55:41;8.82;;;2.38;;
20997;SDS011;10657;51.276;6.390;2022-09-27T00:58:12;6.70;;;1.90;;
20997;SDS011;10657;51.276;6.390;2022-09-27T01:00:44;7.80;;;2.10;;
20997;SDS011;10657;51.276;6.390;2022-09-27T01:03:14;6.22;;;2.20;;
20997;SDS011;10657;51.276;6.390;2022-09-27T01:06:07;7.65;;;2.60;;
20997;SDS011;10657;51.276;6.390;2022-09-27T01:08:35;7.93;;;2.75;;
20997;SDS011;10657;51.276;6.390;2022-09-27T01:11:11;6.35;;;2.40;;
20997;SDS011;10657;51.276;6.390;2022-09-27T01:30:44;8.00;;;2.72;;
20997;SDS011;10657;51.276;6.390;2022-09-27T01:33:36;6.32;;;2.05;;
20997;SDS011;10657;51.276;6.390;2022-09-27T01:42:02;6.90;;;2.47;;
20997;SDS011;10657;51.276;6.390;2022-09-27T01:44:49;6.25;;;2.22;;
20997;SDS011;10657;51.276;6.390;2022-09-27T01:47:28;8.93;;;2.60;;
20997;SDS011;10657;51.276;6.390;2022-09-27T01:50:05;9.02;;;2.53;;
20997;SDS011;10657;51.276;6.390;2022-09-27T01:52:41;5.13;;;2.30;;
20997;SDS011;10657;51.276;6.390;2022-09-27T01:55:13;7.60;;;2.50;;
20997;SDS011;10657;51.276;6.390;2022-09-27T01:57:45;7.38;;;2.60;;
20997;SDS011;10657;51.276;6.390;2022-09-27T02:00:15;8.15;;;2.83;;
20997;SDS011;10657;51.276;6.390;2022-09-27T02:02:50;7.97;;;2.40;;
20997;SDS011;10657;51.276;6.390;2022-09-27T02:05:34;10.63;;;2.83;;
20997;SDS011;10657;51.276;6.390;2022-09-27T02:08:13;7.30;;;2.15;;
20997;SDS011;10657;51.276;6.390;2022-09-27T02:10:53;8.85;;;2.40;;
20997;SDS011;10657;51.276;6.390;2022-09-27T02:13:24;12.02;;;2.25;;
20997;SDS011;10657;51.276;6.390;2022-09-27T02:18:38;5.35;;;1.90;;
20997;SDS011;10657;51.276;6.390;2022-09-27T02:21:20;5.57;;;1.95;;
20997;SDS011;10657;51.276;6.390;2022-09-27T02:23:56;4.57;;;1.70;;
20997;SDS011;10657;51.276;6.390;2022-09-27T02:26:26;5.93;;;1.80;;
20997;SDS011;10657;51.276;6.390;2022-09-27T02:29:08;8.38;;;2.20;;
20997;SDS011;10657;51.276;6.390;2022-09-27T02:31:39;4.57;;;1.73;;
20997;SDS011;10657;51.276;6.390;2022-09-27T02:34:14;6.75;;;1.90;;
20997;SDS011;10657;51.276;6.390;2022-09-27T02:36:44;5.78;;;1.80;;
20997;SDS011;10657;51.276;6.390;2022-09-27T02:39:12;9.00;;;1.90;;
20997;SDS011;10657;51.276;6.390;2022-09-27T02:41:39;6.97;;;1.70;;
20997;SDS011;10657;51.276;6.390;2022-09-27T02:44:07;4.60;;;1.85;;
20997;SDS011;10657;51.276;6.390;2022-09-27T02:57:42;5.78;;;1.40;;
20997;SDS011;10657;51.276;6.390;2022-09-27T03:00:17;10.55;;;1.40;;
20997;SDS011;10657;51.276;6.390;2022-09-27T03:03:08;4.82;;;1.30;;
20997;SDS011;10657;51.276;6.390;2022-09-27T03:05:48;7.10;;;1.58;;
20997;SDS011;10657;51.276;6.390;2022-09-27T03:08:19;5.75;;;1.35;;
20997;SDS011;10657;51.276;6.390;2022-09-27T03:10:46;5.65;;;1.50;;
20997;SDS011;10657;51.276;6.390;2022-09-27T03:13:13;5.13;;;1.40;;
20997;SDS011;10657;51.276;6.390;2022-09-27T03:15:40;5.35;;;1.20;;
20997;SDS011;10657;51.276;6.390;2022-09-27T03:18:07;4.15;;;1.20;;
20997;SDS011;10657;51.276;6.390;2022-09-27T03:20:33;10.88;;;2.45;;
20997;SDS011;10657;51.276;6.390;2022-09-27T03:23:00;6.25;;;1.30;;
20997;SDS011;10657;51.276;6.390;2022-09-27T03:25:27;4.07;;;0.93;;
20997;SDS011;10657;51.276;6.390;2022-09-27T03:27:53;6.80;;;1.30;;
20997;SDS011;10657;51.276;6.390;2022-09-27T03:30:20;6.68;;;1.23;;
20997;SDS011;10657;51.276;6.390;2022-09-27T03:32:46;7.60;;;1.30;;
20997;SDS011;10657;51.276;6.390;2022-09-27T03:35:13;5.68;;;1.27;;
20997;SDS011;10657;51.276;6.390;2022-09-27T03:37:40;3.80;;;1.15;;
20997;SDS011;10657;51.276;6.390;2022-09-27T03:40:07;10.23;;;1.20;;
20997;SDS011;10657;51.276;6.390;2022-09-27T03:42:35;7.00;;;1.30;;
20997;SDS011;10657;51.276;6.390;2022-09-27T03:45:02;5.68;;;1.17;;
20997;SDS011;10657;51.276;6.390;2022-09-27T03:47:29;6.28;;;1.27;;
20997;SDS011;10657;51.276;6.390;2022-09-27T03:49:56;8.35;;;1.30;;
20997;SDS011;10657;51.276;6.390;2022-09-27T03:52:23;5.47;;;0.93;;
20997;SDS011;10657;51.276;6.390;2022-09-27T03:54:50;5.18;;;1.00;;
20997;SDS011;10657;51.276;6.390;2022-09-27T03:57:16;4.07;;;1.05;;
20997;SDS011;10657;51.276;6.390;2022-09-27T03:59:43;5.18;;;1.00;;
20997;SDS011;10657;51.276;6.390;2022-09-27T04:02:10;5.47;;;1.13;;
20997;SDS011;10657;51.276;6.390;2022-09-27T04:04:37;4.75;;;1.05;;
20997;SDS011;10657;51.276;6.390;2022-09-27T04:07:03;5.63;;;1.02;;
20997;SDS011;10657;51.276;6.390;2022-09-27T04:09:30;6.40;;;1.23;;
20997;SDS011;10657;51.276;6.390;2022-09-27T04:11:56;6.15;;;1.10;;
20997;SDS011;10657;51.276;6.390;2022-09-27T04:14:23;3.45;;;0.98;;
20997;SDS011;10657;51.276;6.390;2022-09-27T04:16:50;5.28;;;0.90;;
20997;SDS011;10657;51.276;6.390;2022-09-27T04:19:17;12.35;;;2.03;;
20997;SDS011;10657;51.276;6.390;2022-09-27T04:21:44;5.90;;;1.02;;
20997;SDS011;10657;51.276;6.390;2022-09-27T04:24:10;5.75;;;1.17;;
20997;SDS011;10657;51.276;6.390;2022-09-27T04:26:37;8.13;;;0.90;;
20997;SDS011;10657;51.276;6.390;2022-09-27T04:29:05;5.50;;;1.10;;
20997;SDS011;10657;51.276;6.390;2022-09-27T04:31:35;5.38;;;0.98;;
20997;SDS011;10657;51.276;6.390;2022-09-27T04:34:03;6.72;;;1.17;;
20997;SDS011;10657;51.276;6.390;2022-09-27T04:36:30;10.48;;;1.25;;
20997;SDS011;10657;51.276;6.390;2022-09-27T04:38:58;3.67;;;0.80;;
20997;SDS011;10657;51.276;6.390;2022-09-27T04:41:27;4.20;;;0.85;;
20997;SDS011;10657;51.276;6.390;2022-09-27T04:43:54;7.82;;;1.25;;
20997;SDS011;10657;51.276;6.390;2022-09-27T04:46:24;6.13;;;1.20;;
20997;SDS011;10657;51.276;6.390;2022-09-27T04:48:52;6.65;;;0.82;;
20997;SDS011;10657;51.276;6.390;2022-09-27T04:51:18;7.35;;;1.20;;
20997;SDS011;10657;51.276;6.390;2022-09-27T04:53:46;3.72;;;0.95;;
20997;SDS011;10657;51.276;6.390;2022-09-27T04:56:13;6.80;;;1.08;;
20997;SDS011;10657;51.276;6.390;2022-09-27T04:58:41;6.22;;;1.00;;
20997;SDS011;10657;51.276;6.390;2022-09-27T05:01:07;5.80;;;1.00;;
20997;SDS011;10657;51.276;6.390;2022-09-27T05:03:34;6.07;;;0.90;;
20997;SDS011;10657;51.276;6.390;2022-09-27T05:06:02;4.22;;;0.90;;
20997;SDS011;10657;51.276;6.390;2022-09-27T05:08:28;6.28;;;0.88;;
20997;SDS011;10657;51.276;6.390;2022-09-27T05:10:55;8.68;;;1.20;;
20997;SDS011;10657;51.276;6.390;2022-09-27T05:13:22;5.57;;;0.82;;
20997;SDS011;10657;51.276;6.390;2022-09-27T05:15:48;3.40;;;0.70;;
20997;SDS011;10657;51.276;6.390;2022-09-27T05:18:15;6.78;;;0.95;;
20997;SDS011;10657;51.276;6.390;2022-09-27T05:20:43;5.88;;;0.80;;
20997;SDS011;10657;51.276;6.390;2022-09-27T05:23:10;6.57;;;0.95;;
20997;SDS011;10657;51.276;6.390;2022-09-27T05:25:36;4.88;;;1.08;;
20997;SDS011;10657;51.276;6.390;2022-09-27T05:28:03;6.78;;;0.88;;
20997;SDS011;10657;51.276;6.390;2022-09-27T05:30:31;3.20;;;0.80;;
20997;SDS011;10657;51.276;6.390;2022-09-27T05:32:57;4.68;;;0.90;;
20997;SDS011;10657;51.276;6.390;2022-09-27T05:35:24;4.88;;;0.77;;
20997;SDS011;10657;51.276;6.390;2022-09-27T05:37:55;4.35;;;1.00;;
20997;SDS011;10657;51.276;6.390;2022-09-27T05:40:23;6.63;;;1.25;;
20997;SDS011;10657;51.276;6.390;2022-09-27T05:43:07;5.25;;;1.10;;
20997;SDS011;10657;51.276;6.390;2022-09-27T05:45:34;3.50;;;0.95;;
20997;SDS011;10657;51.276;6.390;2022-09-27T05:48:01;2.67;;;0.60;;
20997;SDS011;10657;51.276;6.390;2022-09-27T05:50:29;2.20;;;0.60;;
20997;SDS011;10657;51.276;6.390;2022-09-27T05:52:56;5.55;;;0.93;;
20997;SDS011;10657;51.276;6.390;2022-09-27T05:55:23;4.05;;;0.80;;
20997;SDS011;10657;51.276;6.390;2022-09-27T05:57:52;5.88;;;1.10;;
20997;SDS011;10657;51.276;6.390;2022-09-27T06:00:26;4.55;;;0.77;;
20997;SDS011;10657;51.276;6.390;2022-09-27T06:03:01;5.53;;;1.48;;
20997;SDS011;10657;51.276;6.390;2022-09-27T06:05:29;5.55;;;0.80;;
20997;SDS011;10657;51.276;6.390;2022-09-27T06:08:00;4.10;;;0.80;;
20997;SDS011;10657;51.276;6.390;2022-09-27T06:10:28;6.18;;;1.17;;
20997;SDS011;10657;51.276;6.390;2022-09-27T06:12:59;4.75;;;0.95;;
20997;SDS011;10657;51.276;6.390;2022-09-27T06:15:28;5.75;;;0.90;;
20997;SDS011;10657;51.276;6.390;2022-09-27T06:17:56;3.63;;;0.73;;
20997;SDS011;10657;51.276;6.390;2022-09-27T06:20:27;5.13;;;0.98;;
20997;SDS011;10657;51.276;6.390;2022-09-27T06:22:54;5.63;;;0.90;;
20997;SDS011;10657;51.276;6.390;2022-09-27T06:25:21;5.65;;;1.20;;
20997;SDS011;10657;51.276;6.390;2022-09-27T06:27:47;3.55;;;1.10;;
20997;SDS011;10657;51.276;6.390;2022-09-27T06:30:14;3.13;;;0.85;;
20997;SDS011;10657;51.276;6.390;2022-09-27T06:32:45;9.13;;;1.20;;
20997;SDS011;10657;51.276;6.390;2022-09-27T06:35:12;4.65;;;1.00;;
20997;SDS011;10657;51.276;6.390;2022-09-27T06:37:39;4.45;;;1.10;;
20997;SDS011;10657;51.276;6.390;2022-09-27T06:40:06;5.47;;;1.02;;
20997;SDS011;10657;51.276;6.390;2022-09-27T06:42:34;6.75;;;1.20;;
20997;SDS011;10657;51.276;6.390;2022-09-27T06:45:00;4.85;;;1.00;;
20997;SDS011;10657;51.276;6.390;2022-09-27T06:47:27;3.97;;;0.93;;
20997;SDS011;10657;51.276;6.390;2022-09-27T06:49:55;4.90;;;1.10;;
20997;SDS011;10657;51.276;6.390;2022-09-27T06:52:21;4.82;;;0.90;;
20997;SDS011;10657;51.276;6.390;2022-09-27T06:54:48;4.93;;;1.23;;
20997;SDS011;10657;51.276;6.390;2022-09-27T06:57:15;3.58;;;0.90;;
20997;SDS011;10657;51.276;6.390;2022-09-27T07:00:01;4.40;;;0.90;;
20997;SDS011;10657;51.276;6.390;2022-09-27T07:02:47;3.85;;;0.77;;
20997;SDS011;10657;51.276;6.390;2022-09-27T07:05:13;3.50;;;1.08;;
20997;SDS011;10657;51.276;6.390;2022-09-27T07:07:40;2.67;;;0.80;;
20997;SDS011;10657;51.276;6.390;2022-09-27T07:10:09;3.95;;;0.80;;
20997;SDS011;10657;51.276;6.390;2022-09-27T07:12:36;4.45;;;0.82;;
20997;SDS011;10657;51.276;6.390;2022-09-27T07:15:03;4.15;;;1.02;;
20997;SDS011;10657;51.276;6.390;2022-09-27T07:17:30;4.75;;;0.95;;
20997;SDS011;10657;51.276;6.390;2022-09-27T07:19:57;4.40;;;0.90;;
20997;SDS011;10657;51.276;6.390;2022-09-27T07:22:24;5.50;;;1.00;;
20997;SDS011;10657;51.276;6.390;2022-09-27T07:24:50;2.42;;;0.80;;
20997;SDS011;10657;51.276;6.390;2022-09-27T07:27:17;4.07;;;0.90;;
20997;SDS011;10657;51.276;6.390;2022-09-27T07:29:44;3.55;;;0.90;;
20997;SDS011;10657;51.276;6.390;2022-09-27T07:32:11;4.20;;;0.90;;
20997;SDS011;10657;51.276;6.390;2022-09-27T07:34:37;2.75;;;0.80;;
20997;SDS011;10657;51.276;6.390;2022-09-27T07:37:04;2.60;;;0.60;;
20997;SDS011;10657;51.276;6.390;2022-09-27T07:39:31;4.38;;;1.00;;
20997;SDS011;10657;51.276;6.390;2022-09-27T07:41:57;3.90;;;1.10;;
20997;SDS011;10657;51.276;6.390;2022-09-27T07:44:24;2.63;;;0.80;;
20997;SDS011;10657;51.276;6.390;2022-09-27T07:46:51;3.55;;;0.90;;
20997;SDS011;10657;51.276;6.390;2022-09-27T07:49:18;3.63;;;1.00;;
20997;SDS011;10657;51.276;6.390;2022-09-27T07:51:44;2.20;;;0.80;;
20997;SDS011;10657;51.276;6.390;2022-09-27T07:54:11;4.97;;;0.80;;
20997;SDS011;10657;51.276;6.390;2022-09-27T07:56:38;3.42;;;0.95;;
20997;SDS011;10657;51.276;6.390;2022-09-27T07:59:04;5.57;;;1.05;;
20997;SDS011;10657;51.276;6.390;2022-09-27T08:01:31;5.57;;;0.77;;
20997;SDS011;10657;51.276;6.390;2022-09-27T08:03:59;4.13;;;0.90;;
20997;SDS011;10657;51.276;6.390;2022-09-27T08:06:26;1.80;;;0.70;;
20997;SDS011;10657;51.276;6.390;2022-09-27T08:08:53;3.30;;;0.80;;
20997;SDS011;10657;51.276;6.390;2022-09-27T08:11:20;4.43;;;0.80;;
20997;SDS011;10657;51.276;6.390;2022-09-27T08:13:46;4.65;;;1.30;;
20997;SDS011;10657;51.276;6.390;2022-09-27T08:16:14;4.13;;;1.17;;
20997;SDS011;10657;51.276;6.390;2022-09-27T08:18:41;3.13;;;1.00;;
20997;SDS011;10657;51.276;6.390;2022-09-27T08:21:08;3.53;;;1.10;;
20997;SDS011;10657;51.276;6.390;2022-09-27T08:23:35;2.38;;;0.98;;
20997;SDS011;10657;51.276;6.390;2022-09-27T08:26:02;4.53;;;0.88;;
20997;SDS011;10657;51.276;6.390;2022-09-27T08:28:28;6.88;;;0.95;;
20997;SDS011;10657;51.276;6.390;2022-09-27T08:30:57;4.43;;;0.70;;
20997;SDS011;10657;51.276;6.390;2022-09-27T08:33:26;2.25;;;0.80;;
20997;SDS011;10657;51.276;6.390;2022-09-27T08:35:58;6.18;;;0.95;;
20997;SDS011;10657;51.276;6.390;2022-09-27T08:38:26;3.05;;;1.08;;
20997;SDS011;10657;51.276;6.390;2022-09-27T08:40:54;4.55;;;1.08;;
20997;SDS011;10657;51.276;6.390;2022-09-27T08:49:44;5.22;;;1.30;;
20997;SDS011;10657;51.276;6.390;2022-09-27T08:52:29;8.00;;;1.70;;
20997;SDS011;10657;51.276;6.390;2022-09-27T08:55:02;7.25;;;1.90;;
20997;SDS011;10657;51.276;6.390;2022-09-27T08:57:49;3.97;;;1.40;;
20997;SDS011;10657;51.276;6.390;2022-09-27T09:00:20;5.90;;;1.60;;
20997;SDS011;10657;51.276;6.390;2022-09-27T09:02:47;4.75;;;1.65;;
20997;SDS011;10657;51.276;6.390;2022-09-27T09:05:16;5.75;;;1.67;;
20997;SDS011;10657;51.276;6.390;2022-09-27T09:08:13;4.13;;;1.50;;
20997;SDS011;10657;51.276;6.390;2022-09-27T09:10:58;7.10;;;1.70;;
20997;SDS011;10657;51.276;6.390;2022-09-27T09:14:04;5.95;;;1.80;;
20997;SDS011;10657;51.276;6.390;2022-09-27T09:17:04;7.10;;;1.50;;
20997;SDS011;10657;51.276;6.390;2022-09-27T09:22:47;4.88;;;1.70;;
20997;SDS011;10657;51.276;6.390;2022-09-27T09:30:43;5.40;;;1.60;;
20997;SDS011;10657;51.276;6.390;2022-09-27T09:33:28;5.63;;;1.88;;
20997;SDS011;10657;51.276;6.390;2022-09-27T09:36:02;5.00;;;1.80;;
20997;SDS011;10657;51.276;6.390;2022-09-27T09:43:57;4.00;;;1.52;;
20997;SDS011;10657;51.276;6.390;2022-09-27T09:46:41;5.85;;;1.60;;
20997;SDS011;10657;51.276;6.390;2022-09-27T09:51:50;6.32;;;1.35;;
20997;SDS011;10657;51.276;6.390;2022-09-27T09:54:23;5.55;;;1.60;;
20997;SDS011;10657;51.276;6.390;2022-09-27T09:57:02;4.53;;;1.42;;
20997;SDS011;10657;51.276;6.390;2022-09-27T09:59:54;4.63;;;1.55;;
20997;SDS011;10657;51.276;6.390;2022-09-27T10:02:37;4.35;;;1.30;;
20997;SDS011;10657;51.276;6.390;2022-09-27T10:05:05;6.82;;;1.60;;
20997;SDS011;10657;51.276;6.390;2022-09-27T10:07:33;6.47;;;1.77;;
20997;SDS011;10657;51.276;6.390;2022-09-27T10:10:04;5.57;;;2.03;;
20997;SDS011;10657;51.276;6.390;2022-09-27T10:12:32;5.90;;;1.70;;
20997;SDS011;10657;51.276;6.390;2022-09-27T10:15:02;5.22;;;1.80;;
20997;SDS011;10657;51.276;6.390;2022-09-27T10:17:34;5.10;;;2.10;;
20997;SDS011;10657;51.276;6.390;2022-09-27T10:20:06;4.90;;;1.85;;
20997;SDS011;10657;51.276;6.390;2022-09-27T10:22:47;7.60;;;2.45;;
20997;SDS011;10657;51.276;6.390;2022-09-27T10:25:19;6.82;;;2.90;;
20997;SDS011;10657;51.276;6.390;2022-09-27T10:27:48;7.13;;;2.45;;
20997;SDS011;10657;51.276;6.390;2022-09-27T10:32:55;6.40;;;2.50;;
20997;SDS011;10657;51.276;6.390;2022-09-27T10:38:19;8.73;;;3.00;;
20997;SDS011;10657;51.276;6.390;2022-09-27T10:40:50;10.32;;;3.42;;
20997;SDS011;10657;51.276;6.390;2022-09-27T10:43:26;8.15;;;3.38;;
20997;SDS011;10657;51.276;6.390;2022-09-27T10:46:09;7.55;;;2.72;;
20997;SDS011;10657;51.276;6.390;2022-09-27T10:48:41;8.43;;;3.42;;
20997;SDS011;10657;51.276;6.390;2022-09-27T10:51:29;9.82;;;3.28;;
20997;SDS011;10657;51.276;6.390;2022-09-27T10:53:57;7.38;;;3.40;;
20997;SDS011;10657;51.276;6.390;2022-09-27T10:56:29;5.78;;;2.92;;
20997;SDS011;10657;51.276;6.390;2022-09-27T10:59:00;8.70;;;3.30;;
20997;SDS011;10657;51.276;6.390;2022-09-27T11:01:39;8.05;;;3.30;;
20997;SDS011;10657;51.276;6.390;2022-09-27T11:04:17;8.23;;;3.25;;
20997;SDS011;10657;51.276;6.390;2022-09-27T11:06:46;7.35;;;2.75;;
20997;SDS011;10657;51.276;6.390;2022-09-27T11:09:18;6.93;;;2.75;;
20997;SDS011;10657;51.276;6.390;2022-09-27T11:11:48;6.15;;;2.60;;
20997;SDS011;10657;51.276;6.390;2022-09-27T11:14:22;6.60;;;2.80;;
20997;SDS011;10657;51.276;6.390;2022-09-27T12:01:03;6.43;;;2.17;;
20997;SDS011;10657;51.276;6.390;2022-09-27T12:11:11;4.85;;;1.60;;
20997;SDS011;10657;51.276;6.390;2022-09-27T12:13:40;4.55;;;1.80;;
20997;SDS011;10657;51.276;6.390;2022-09-27T12:16:08;3.17;;;1.40;;
20997;SDS011;10657;51.276;6.390;2022-09-27T12:18:38;2.88;;;1.40;;
20997;SDS011;10657;51.276;6.390;2022-09-27T12:21:05;5.13;;;1.60;;
20997;SDS011;10657;51.276;6.390;2022-09-27T12:26:18;3.28;;;1.30;;
20997;SDS011;10657;51.276;6.390;2022-09-27T12:28:56;2.72;;;1.40;;
20997;SDS011;10657;51.276;6.390;2022-09-27T12:36:31;2.13;;;0.90;;
20997;SDS011;10657;51.276;6.390;2022-09-27T12:39:16;2.15;;;0.90;;
20997;SDS011;10657;51.276;6.390;2022-09-27T12:41:47;2.38;;;1.00;;
20997;SDS011;10657;51.276;6.390;2022-09-27T12:44:15;2.58;;;1.02;;
20997;SDS011;10657;51.276;6.390;2022-09-27T12:51:41;6.15;;;1.70;;
20997;SDS011;10657;51.276;6.390;2022-09-27T12:54:22;3.15;;;1.33;;
20997;SDS011;10657;51.276;6.390;2022-09-27T13:10:58;2.65;;;1.10;;
20997;SDS011;10657;51.276;6.390;2022-09-27T13:13:23;1.98;;;0.80;;
20997;SDS011;10657;51.276;6.390;2022-09-27T13:16:01;2.35;;;1.00;;
20997;SDS011;10657;51.276;6.390;2022-09-27T13:20:55;2.90;;;0.88;;
20997;SDS011;10657;51.276;6.390;2022-09-27T13:28:56;2.20;;;0.77;;
20997;SDS011;10657;51.276;6.390;2022-09-27T13:34:36;1.38;;;0.50;;
20997;SDS011;10657;51.276;6.390;2022-09-27T13:36:56;2.70;;;0.63;;
20997;SDS011;10657;51.276;6.390;2022-09-27T13:39:23;4.55;;;0.88;;
20997;SDS011;10657;51.276;6.390;2022-09-27T13:41:53;2.22;;;0.80;;
20997;SDS011;10657;51.276;6.390;2022-09-27T13:44:43;3.08;;;1.13;;
20997;SDS011;10657;51.276;6.390;2022-09-27T13:47:14;2.33;;;0.90;;
20997;SDS011;10657;51.276;6.390;2022-09-27T13:49:45;2.13;;;1.02;;
20997;SDS011;10657;51.276;6.390;2022-09-27T13:52:16;2.13;;;1.00;;
20997;SDS011;10657;51.276;6.390;2022-09-27T13:54:50;3.47;;;0.90;;
20997;SDS011;10657;51.276;6.390;2022-09-27T14:00:03;3.88;;;1.38;;
20997;SDS011;10657;51.276;6.390;2022-09-27T14:05:20;4.25;;;1.20;;
20997;SDS011;10657;51.276;6.390;2022-09-27T14:07:49;2.45;;;0.90;;
20997;SDS011;10657;51.276;6.390;2022-09-27T14:10:18;3.83;;;1.25;;
20997;SDS011;10657;51.276;6.390;2022-09-27T14:12:47;4.70;;;1.40;;
20997;SDS011;10657;51.276;6.390;2022-09-27T14:15:22;4.90;;;1.42;;
20997;SDS011;10657;51.276;6.390;2022-09-27T14:17:50;4.80;;;1.30;;
20997;SDS011;10657;51.276;6.390;2022-09-27T14:23:22;3.13;;;1.30;;
20997;SDS011;10657;51.276;6.390;2022-09-27T14:25:50;4.35;;;1.40;;
20997;SDS011;10657;51.276;6.390;2022-09-27T14:28:23;5.55;;;1.17;;
20997;SDS011;10657;51.276;6.390;2022-09-27T14:33:33;8.27;;;1.70;;
20997;SDS011;10657;51.276;6.390;2022-09-27T14:36:00;6.45;;;1.35;;
20997;SDS011;10657;51.276;6.390;2022-09-27T14:38:49;4.22;;;1.30;;
20997;SDS011;10657;51.276;6.390;2022-09-27T14:41:17;4.05;;;1.38;;
20997;SDS011;10657;51.276;6.390;2022-09-27T14:43:44;6.07;;;1.35;;
20997;SDS011;10657;51.276;6.390;2022-09-27T14:46:24;3.95;;;1.42;;
20997;SDS011;10657;51.276;6.390;2022-09-27T14:48:52;5.97;;;2.30;;
20997;SDS011;10657;51.276;6.390;2022-09-27T14:51:25;6.03;;;1.70;;
20997;SDS011;10657;51.276;6.390;2022-09-27T14:53:54;2.65;;;1.20;;
20997;SDS011;10657;51.276;6.390;2022-09-27T14:56:24;5.30;;;1.75;;
20997;SDS011;10657;51.276;6.390;2022-09-27T14:58:54;7.40;;;2.92;;
20997;SDS011;10657;51.276;6.390;2022-09-27T15:01:27;9.27;;;3.80;;
20997;SDS011;10657;51.276;6.390;2022-09-27T15:04:03;6.38;;;1.77;;
20997;SDS011;10657;51.276;6.390;2022-09-27T15:06:30;6.10;;;1.85;;
20997;SDS011;10657;51.276;6.390;2022-09-27T15:08:57;4.13;;;1.63;;
20997;SDS011;10657;51.276;6.390;2022-09-27T15:11:25;6.55;;;1.90;;
20997;SDS011;10657;51.276;6.390;2022-09-27T15:13:54;5.93;;;1.60;;
20997;SDS011;10657;51.276;6.390;2022-09-27T15:16:23;7.15;;;1.77;;
20997;SDS011;10657;51.276;6.390;2022-09-27T15:18:59;4.55;;;1.38;;
20997;SDS011;10657;51.276;6.390;2022-09-27T15:21:32;2.90;;;1.08;;
20997;SDS011;10657;51.276;6.390;2022-09-27T15:23:59;2.63;;;0.90;;
20997;SDS011;10657;51.276;6.390;2022-09-27T15:26:35;1.20;;;0.60;;
20997;SDS011;10657;51.276;6.390;2022-09-27T15:29:03;3.60;;;0.90;;
20997;SDS011;10657;51.276;6.390;2022-09-27T15:31:31;2.92;;;0.70;;
20997;SDS011;10657;51.276;6.390;2022-09-27T15:34:00;2.70;;;0.60;;
20997;SDS011;10657;51.276;6.390;2022-09-27T15:39:18;2.92;;;0.98;;
20997;SDS011;10657;51.276;6.390;2022-09-27T15:50:42;3.60;;;0.80;;
20997;SDS011;10657;51.276;6.390;2022-09-27T15:55:17;4.15;;;0.95;;
20997;SDS011;10657;51.276;6.390;2022-09-27T15:57:46;3.78;;;1.00;;
20997;SDS011;10657;51.276;6.390;2022-09-27T16:00:16;3.30;;;1.00;;
20997;SDS011;10657;51.276;6.390;2022-09-27T16:02:43;6.90;;;1.27;;
20997;SDS011;10657;51.276;6.390;2022-09-27T16:05:11;6.35;;;1.42;;
20997;SDS011;10657;51.276;6.390;2022-09-27T16:07:38;5.32;;;1.50;;
20997;SDS011;10657;51.276;6.390;2022-09-27T16:10:17;7.97;;;1.45;;
20997;SDS011;10657;51.276;6.390;2022-09-27T16:12:45;4.97;;;1.40;;
20997;SDS011;10657;51.276;6.390;2022-09-27T16:15:13;5.90;;;1.40;;
20997;SDS011;10657;51.276;6.390;2022-09-27T16:17:40;7.05;;;1.45;;
20997;SDS011;10657;51.276;6.390;2022-09-27T16:20:14;5.97;;;2.03;;
20997;SDS011;10657;51.276;6.390;2022-09-27T16:22:42;8.80;;;1.42;;
20997;SDS011;10657;51.276;6.390;2022-09-27T16:25:09;4.85;;;1.25;;
20997;SDS011;10657;51.276;6.390;2022-09-27T16:27:37;7.03;;;1.40;;
20997;SDS011;10657;51.276;6.390;2022-09-27T16:30:04;3.60;;;1.40;;
20997;SDS011;10657;51.276;6.390;2022-09-27T16:32:31;6.07;;;1.23;;
20997;SDS011;10657;51.276;6.390;2022-09-27T16:34:59;5.68;;;1.30;;
20997;SDS011;10657;51.276;6.390;2022-09-27T16:37:26;3.95;;;1.23;;
20997;SDS011;10657;51.276;6.390;2022-09-27T16:39:55;5.32;;;1.13;;
20997;SDS011;10657;51.276;6.390;2022-09-27T16:42:22;4.75;;;1.58;;
20997;SDS011;10657;51.276;6.390;2022-09-27T16:44:49;5.47;;;1.80;;
20997;SDS011;10657;51.276;6.390;2022-09-27T16:47:17;10.23;;;2.67;;
20997;SDS011;10657;51.276;6.390;2022-09-27T16:49:44;9.18;;;2.78;;
20997;SDS011;10657;51.276;6.390;2022-09-27T16:52:30;4.53;;;1.65;;
20997;SDS011;10657;51.276;6.390;2022-09-27T16:54:58;7.78;;;2.20;;
20997;SDS011;10657;51.276;6.390;2022-09-27T16:57:25;6.30;;;1.83;;
20997;SDS011;10657;51.276;6.390;2022-09-27T16:59:59;6.22;;;1.70;;
20997;SDS011;10657;51.276;6.390;2022-09-27T17:02:26;9.77;;;1.38;;
20997;SDS011;10657;51.276;6.390;2022-09-27T17:04:53;5.03;;;1.40;;
20997;SDS011;10657;51.276;6.390;2022-09-27T17:07:20;5.30;;;1.60;;
20997;SDS011;10657;51.276;6.390;2022-09-27T17:09:50;6.18;;;1.65;;
20997;SDS011;10657;51.276;6.390;2022-09-27T17:12:17;4.47;;;1.70;;
20997;SDS011;10657;51.276;6.390;2022-09-27T17:14:44;7.35;;;1.95;;
20997;SDS011;10657;51.276;6.390;2022-09-27T17:17:11;6.07;;;2.20;;
20997;SDS011;10657;51.276;6.390;2022-09-27T17:19:38;6.13;;;2.40;;
20997;SDS011;10657;51.276;6.390;2022-09-27T17:22:05;7.68;;;2.80;;
20997;SDS011;10657;51.276;6.390;2022-09-27T17:24:34;8.23;;;2.42;;
20997;SDS011;10657;51.276;6.390;2022-09-27T17:27:01;7.70;;;2.20;;
20997;SDS011;10657;51.276;6.390;2022-09-27T17:29:28;6.65;;;2.30;;
20997;SDS011;10657;51.276;6.390;2022-09-27T17:31:56;7.45;;;2.30;;
20997;SDS011;10657;51.276;6.390;2022-09-27T17:34:23;5.57;;;2.00;;
20997;SDS011;10657;51.276;6.390;2022-09-27T17:36:50;9.95;;;2.38;;
20997;SDS011;10657;51.276;6.390;2022-09-27T17:39:18;6.45;;;2.03;;
20997;SDS011;10657;51.276;6.390;2022-09-27T17:41:49;6.30;;;2.20;;
20997;SDS011;10657;51.276;6.390;2022-09-27T17:44:17;7.03;;;1.85;;
20997;SDS011;10657;51.276;6.390;2022-09-27T17:46:45;6.07;;;1.85;;
20997;SDS011;10657;51.276;6.390;2022-09-27T17:49:12;5.20;;;1.92;;
20997;SDS011;10657;51.276;6.390;2022-09-27T17:51:59;5.68;;;2.28;;
20997;SDS011;10657;51.276;6.390;2022-09-27T17:54:26;10.45;;;5.85;;
20997;SDS011;10657;51.276;6.390;2022-09-27T17:56:53;9.60;;;5.40;;
20997;SDS011;10657;51.276;6.390;2022-09-27T17:59:21;7.85;;;3.72;;
20997;SDS011;10657;51.276;6.390;2022-09-27T18:01:48;7.13;;;3.03;;
20997;SDS011;10657;51.276;6.390;2022-09-27T18:04:16;8.43;;;2.72;;
20997;SDS011;10657;51.276;6.390;2022-09-27T18:06:45;7.82;;;2.78;;
20997;SDS011;10657;51.276;6.390;2022-09-27T18:09:13;4.97;;;2.00;;
20997;SDS011;10657;51.276;6.390;2022-09-27T18:11:41;6.22;;;2.25;;